CDG weather

Charles de Gaulle International Airport
Paris, Île-de-France, France

Public forecast

Using degrees Celsius for public forecast. Weather courtesy of forecast.io.

METAR (pilot weather report)

Retrieved 2018/11/16 21:30 UTC (10 minutes ago):

LFPG 162130Z 08007KT 040V100 3500 BR BKN006 06/05 Q1025 NOSIG

TAF (pilot weather forecast)

Retrieved 2018/11/16 18:25 UTC (3 hours ago):

TAF LFPG 161700Z 1618/1724 07008KT 0700 FG VV/// TX09/1715Z TN02/1706Z BECMG 1620/1622 CAVOK